SKLT/LET METAR and TAF weather

Enter ICAO airport designator
Station Type Date Time Source
SKLT METAR 2020/09/23 18:00 UTC NOAA

SKLT 231800Z 24003KT 9999 SCT020 SCT200 31/24 A2992


Station Type Date Time Source
SKLT Decoded METAR 2020/09/23 18:00 UTC NOAA

Leticia / Vasquez Cobo, Colombia (SKLT) 04-10S 069-57W 84M
Sep 23, 2020 - 02:00 PM EDT / 2020.09.23 1800 UTC
Wind: from the WSW (240 degrees) at 3 MPH (3 KT):0
Visibility: greater than 7 mile(s):0
Sky conditions: partly cloudy
Temperature: 87 F (31 C)
Heat index: 95.7 F (35.4 C):1
Dew Point: 75 F (24 C)
Relative Humidity: 66%
Pressure (altimeter): 29.92 in. Hg (1013 hPa)
ob: SKLT 231800Z 24003KT 9999 SCT020 SCT200 31/24 A2992
cycle: 18

Station Type Date Time Source
SKLT TAF 2020/09/23 18:40 UTC NOAA

TAF SKLT 231630Z 2318/2418 VRB03KT 9999 SCT020 SCT100
TEMPO 2318/2321 TS SCT015CB PROB40
TEMPO 2400/2403 5000 TSRA BKN010CB TX33/2318Z TN23/2410Z

Example: see airport list